Time;durP1;ratioP1;P1;durP2;ratioP2;P2;SDS_P1;SDS_P2;PMS_P1;PMS_P2;Temp;Humidity;BMP_temperature;BMP_pressure;BME280_temperature;BME280_humidity;BME280_pressure;Samples;Min_cycle;Max_cycle;Signal;HPM_P1;HPM_P2
2023/12/09 00:01:28;;;;;;;;;;;2.10;99.90;;;;;;4974597;28;19946;-66
2023/12/09 00:03:53;;;;;;;;;;;2.10;99.90;;;;;;4975352;28;19980;-66
2023/12/09 00:06:19;;;;;;;;;;;2.10;99.90;;;;;;4975081;28;19972;-66
2023/12/09 00:08:45;;;;;;;;;;;2.10;99.90;;;;;;4974896;28;19930;-66
2023/12/09 00:11:11;;;;;;;;;;;2.10;99.90;;;;;;4974395;28;19945;-66
2023/12/09 00:13:36;;;;;;;;;;;2.20;99.90;;;;;;4975077;28;19990;-66
2023/12/09 00:16:01;;;;;;;;;;;2.20;99.90;;;;;;4975021;28;19926;-66
2023/12/09 00:18:27;;;;;;;;;;;2.20;99.90;;;;;;4974938;28;19933;-66
2023/12/09 00:20:52;;;;;;;;;;;2.20;99.90;;;;;;4972055;28;20345;-67
2023/12/09 00:23:18;;;;;;;;;;;2.20;99.90;;;;;;4971385;28;19994;-66
2023/12/09 00:25:44;;;;;;;;;;;2.20;99.90;;;;;;4974694;28;19968;-66
2023/12/09 00:28:09;;;;;;;;;;;2.20;99.90;;;;;;4974977;28;20026;-66
2023/12/09 00:30:35;;;;;;;;;;;2.10;99.90;;;;;;4974066;28;20439;-66
2023/12/09 00:33:00;;;;;;;;;;;2.10;99.90;;;;;;4973348;28;19925;-66
2023/12/09 00:35:26;;;;;;;;;;;2.10;99.90;;;;;;4974562;28;19936;-66
2023/12/09 00:37:51;;;;;;;;;;;2.10;99.90;;;;;;4974470;28;20310;-67
2023/12/09 00:40:17;;;;;;;;;;;2.20;99.90;;;;;;4973723;28;19941;-66
2023/12/09 00:42:42;;;;;;;;;;;2.20;99.90;;;;;;4974390;28;20299;-66
2023/12/09 00:45:08;;;;;;;;;;;2.20;99.90;;;;;;4974502;28;19922;-66
2023/12/09 00:47:33;;;;;;;;;;;2.20;99.90;;;;;;4974539;28;19970;-66
2023/12/09 00:50:00;;;;;;;;;;;2.10;99.90;;;;;;4973534;28;20392;-66
2023/12/09 00:52:25;;;;;;;;;;;2.10;99.90;;;;;;4974465;28;19932;-65
2023/12/09 00:54:51;;;;;;;;;;;2.20;99.90;;;;;;4974725;28;20549;-68
2023/12/09 00:57:16;;;;;;;;;;;2.20;99.90;;;;;;4974238;28;20013;-67
2023/12/09 00:59:42;;;;;;;;;;;2.20;99.90;;;;;;4973857;28;20415;-67
2023/12/09 01:02:07;;;;;;;;;;;2.20;99.90;;;;;;4973614;28;19951;-66
2023/12/09 01:04:32;;;;;;;;;;;2.20;99.90;;;;;;4972867;28;19934;-66
2023/12/09 01:06:58;;;;;;;;;;;2.20;99.90;;;;;;4974421;28;19933;-66
2023/12/09 01:09:24;;;;;;;;;;;2.20;99.90;;;;;;4974411;28;19948;-66
2023/12/09 01:11:49;;;;;;;;;;;2.20;99.90;;;;;;4973156;28;19939;-67
2023/12/09 01:14:14;;;;;;;;;;;2.20;99.90;;;;;;4973960;28;19932;-66
2023/12/09 01:16:40;;;;;;;;;;;2.20;99.90;;;;;;4973485;28;20354;-66
2023/12/09 01:19:06;;;;;;;;;;;2.20;99.90;;;;;;4973508;28;19936;-67
2023/12/09 01:21:31;;;;;;;;;;;2.20;99.90;;;;;;4973047;28;20392;-66
2023/12/09 01:23:57;;;;;;;;;;;2.20;99.90;;;;;;4973614;28;19954;-66
2023/12/09 01:26:22;;;;;;;;;;;2.20;99.90;;;;;;4973683;28;20316;-66
2023/12/09 01:28:48;;;;;;;;;;;2.20;99.90;;;;;;4973586;28;19928;-66
2023/12/09 01:31:13;;;;;;;;;;;2.20;99.90;;;;;;4973040;28;20314;-66
2023/12/09 01:33:39;;;;;;;;;;;2.20;99.90;;;;;;4973244;28;20025;-67
2023/12/09 01:36:04;;;;;;;;;;;2.20;99.90;;;;;;4973475;28;19946;-67
2023/12/09 01:38:30;;;;;;;;;;;2.20;99.90;;;;;;4973480;28;19935;-66
2023/12/09 01:40:56;;;;;;;;;;;2.20;99.90;;;;;;4972764;28;20034;-66
2023/12/09 01:43:22;;;;;;;;;;;2.20;99.90;;;;;;4973393;28;19931;-66
2023/12/09 01:45:49;;;;;;;;;;;2.20;99.90;;;;;;4973368;28;19930;-67
2023/12/09 01:48:15;;;;;;;;;;;2.20;99.90;;;;;;4973188;28;20376;-67
2023/12/09 01:50:40;;;;;;;;;;;2.20;99.90;;;;;;4972407;28;20035;-66
2023/12/09 01:53:06;;;;;;;;;;;2.30;99.90;;;;;;4973191;28;19962;-67
2023/12/09 01:55:32;;;;;;;;;;;2.20;99.90;;;;;;4973236;28;19938;-67
2023/12/09 01:57:57;;;;;;;;;;;2.20;99.90;;;;;;4973087;28;19933;-66
2023/12/09 02:00:23;;;;;;;;;;;2.20;99.90;;;;;;4972440;28;19991;-67
2023/12/09 02:02:48;;;;;;;;;;;2.20;99.90;;;;;;4972680;28;19977;-67
2023/12/09 02:05:14;;;;;;;;;;;2.30;99.90;;;;;;4973010;28;20397;-67
2023/12/09 02:07:39;;;;;;;;;;;2.30;99.90;;;;;;4972953;28;19947;-67
2023/12/09 02:10:05;;;;;;;;;;;2.30;99.90;;;;;;4972153;28;19943;-67
2023/12/09 02:12:31;;;;;;;;;;;2.30;99.90;;;;;;4972930;28;19933;-66
2023/12/09 02:15:04;;;;;;;;;;;2.30;99.90;;;;;;4972685;28;19930;-65
2023/12/09 02:17:32;;;;;;;;;;;2.30;99.90;;;;;;4972881;28;19931;-67
2023/12/09 02:19:58;;;;;;;;;;;2.30;99.90;;;;;;4971833;28;19959;-66
2023/12/09 02:22:24;;;;;;;;;;;2.30;99.90;;;;;;4972457;28;20368;-66
2023/12/09 02:24:49;;;;;;;;;;;2.30;99.90;;;;;;4972392;28;20023;-67
2023/12/09 02:27:18;;;;;;;;;;;2.30;99.90;;;;;;4971425;28;20047;-67
2023/12/09 02:30:06;;;;;;;;;;;2.30;99.90;;;;;;4971786;28;19952;-67
2023/12/09 02:32:33;;;;;;;;;;;2.30;99.90;;;;;;4971719;28;19926;-67
2023/12/09 02:35:01;;;;;;;;;;;2.30;99.90;;;;;;4972334;28;20076;-67
2023/12/09 02:37:26;;;;;;;;;;;2.30;99.90;;;;;;4972761;28;19954;-66
2023/12/09 02:39:52;;;;;;;;;;;2.30;99.90;;;;;;4971673;28;20041;-67
2023/12/09 02:42:18;;;;;;;;;;;2.30;99.90;;;;;;4972335;28;19962;-66
2023/12/09 02:44:44;;;;;;;;;;;2.30;99.90;;;;;;4972200;28;20459;-66
2023/12/09 02:47:13;;;;;;;;;;;2.30;99.90;;;;;;4972170;28;20021;-67
2023/12/09 02:49:39;;;;;;;;;;;2.30;99.90;;;;;;4971975;28;20042;-66
2023/12/09 02:52:05;;;;;;;;;;;2.30;99.90;;;;;;4971625;28;20018;-66
2023/12/09 02:54:30;;;;;;;;;;;2.40;99.90;;;;;;4972338;28;20028;-67
2023/12/09 02:56:56;;;;;;;;;;;2.30;99.90;;;;;;4971469;28;19931;-65
2023/12/09 02:59:21;;;;;;;;;;;2.30;99.90;;;;;;4972139;28;19947;-66
2023/12/09 03:01:46;;;;;;;;;;;2.30;99.90;;;;;;4971231;28;19946;-66
2023/12/09 03:04:13;;;;;;;;;;;2.20;99.90;;;;;;4972003;28;19926;-66
2023/12/09 03:06:38;;;;;;;;;;;2.20;99.90;;;;;;4972193;28;20413;-66
2023/12/09 03:09:04;;;;;;;;;;;2.30;99.90;;;;;;4971829;28;20017;-67
2023/12/09 03:11:29;;;;;;;;;;;2.30;99.90;;;;;;4971504;28;19938;-66
2023/12/09 03:13:54;;;;;;;;;;;2.30;99.90;;;;;;4971940;28;19954;-66
2023/12/09 03:16:20;;;;;;;;;;;2.30;99.90;;;;;;4970710;28;20022;-66
2023/12/09 03:18:45;;;;;;;;;;;2.30;99.90;;;;;;4971697;28;19932;-67
2023/12/09 03:21:15;;;;;;;;;;;2.30;99.90;;;;;;4971107;28;19960;-66
2023/12/09 03:23:41;;;;;;;;;;;2.30;99.90;;;;;;4986779;28;19943;-66
2023/12/09 03:26:12;;;;;;;;;;;2.30;99.90;;;;;;4964017;28;19932;-65
2023/12/09 03:28:39;;;;;;;;;;;2.30;99.90;;;;;;4971915;28;19931;-65
2023/12/09 03:31:05;;;;;;;;;;;2.30;99.90;;;;;;4970868;28;19940;-65
2023/12/09 03:33:30;;;;;;;;;;;2.30;99.90;;;;;;4971808;28;20344;-67
2023/12/09 03:35:56;;;;;;;;;;;2.30;99.90;;;;;;4971702;28;19931;-66
2023/12/09 03:38:21;;;;;;;;;;;2.20;99.90;;;;;;4970548;28;19943;-66
2023/12/09 03:40:47;;;;;;;;;;;2.30;99.90;;;;;;4970900;28;20416;-66
2023/12/09 03:43:12;;;;;;;;;;;2.20;99.90;;;;;;4971683;28;19988;-66
2023/12/09 03:45:38;;;;;;;;;;;2.30;99.90;;;;;;4971575;28;19940;-67
2023/12/09 03:48:03;;;;;;;;;;;2.30;99.90;;;;;;4971489;28;20467;-66
2023/12/09 03:50:29;;;;;;;;;;;2.30;99.90;;;;;;4971233;28;20054;-67
2023/12/09 03:52:54;;;;;;;;;;;2.30;99.90;;;;;;4971618;28;19939;-66
2023/12/09 03:55:20;;;;;;;;;;;2.30;99.90;;;;;;4971702;28;19934;-66
2023/12/09 03:57:45;;;;;;;;;;;2.30;99.90;;;;;;4971571;28;19927;-66
2023/12/09 04:00:11;;;;;;;;;;;2.30;99.90;;;;;;4970894;28;20476;-66
2023/12/09 04:02:36;;;;;;;;;;;2.30;99.90;;;;;;4970267;28;19976;-66
2023/12/09 04:05:03;;;;;;;;;;;2.30;99.90;;;;;;4971539;28;19931;-66
2023/12/09 04:07:28;;;;;;;;;;;2.30;99.90;;;;;;4972304;28;20387;-66
2023/12/09 04:09:54;;;;;;;;;;;2.30;99.90;;;;;;4974412;28;19967;-66
2023/12/09 04:12:19;;;;;;;;;;;2.30;99.90;;;;;;4975019;28;20461;-66
2023/12/09 04:14:45;;;;;;;;;;;2.30;99.90;;;;;;4974793;28;19938;-66
2023/12/09 04:17:10;;;;;;;;;;;2.30;99.90;;;;;;4975055;28;19925;-66
2023/12/09 04:19:36;;;;;;;;;;;2.20;99.90;;;;;;4974599;28;20375;-66
2023/12/09 04:22:01;;;;;;;;;;;2.20;99.90;;;;;;4974481;28;19954;-66
2023/12/09 04:24:27;;;;;;;;;;;2.20;99.90;;;;;;4973903;28;20464;-66
2023/12/09 04:26:52;;;;;;;;;;;2.20;99.90;;;;;;4974693;28;19931;-66
2023/12/09 04:29:18;;;;;;;;;;;2.20;99.90;;;;;;4974730;28;19930;-66
2023/12/09 04:31:44;;;;;;;;;;;2.20;99.90;;;;;;4974039;28;19942;-66
2023/12/09 04:34:09;;;;;;;;;;;2.20;99.90;;;;;;4974879;28;20388;-66
2023/12/09 04:36:35;;;;;;;;;;;2.20;99.90;;;;;;4974678;28;20002;-66
2023/12/09 04:39:00;;;;;;;;;;;2.20;99.90;;;;;;4974371;28;19938;-67
2023/12/09 04:41:26;;;;;;;;;;;2.20;99.90;;;;;;4973947;28;19950;-67
2023/12/09 04:43:52;;;;;;;;;;;2.20;99.90;;;;;;4974319;28;20044;-67
2023/12/09 04:46:17;;;;;;;;;;;2.20;99.90;;;;;;4974583;28;19969;-66
2023/12/09 04:48:43;;;;;;;;;;;2.20;99.90;;;;;;4974489;28;19934;-67
2023/12/09 04:51:08;;;;;;;;;;;2.20;99.90;;;;;;4972552;28;20310;-66
2023/12/09 04:53:34;;;;;;;;;;;2.20;99.90;;;;;;4974415;28;19937;-67
2023/12/09 04:55:59;;;;;;;;;;;2.20;99.90;;;;;;4974306;28;19941;-66
2023/12/09 04:58:25;;;;;;;;;;;2.20;99.90;;;;;;4974274;28;19936;-67
2023/12/09 05:00:50;;;;;;;;;;;2.20;99.90;;;;;;4973420;28;20318;-66
2023/12/09 05:03:16;;;;;;;;;;;2.20;99.90;;;;;;4974040;28;19959;-66
2023/12/09 05:05:41;;;;;;;;;;;2.20;99.90;;;;;;4974314;28;19939;-66
2023/12/09 05:08:08;;;;;;;;;;;2.20;99.90;;;;;;4974510;28;19979;-66
2023/12/09 05:10:33;;;;;;;;;;;2.20;99.90;;;;;;4973575;28;19951;-66
2023/12/09 05:12:59;;;;;;;;;;;2.20;99.90;;;;;;4973866;28;20146;-66
2023/12/09 05:15:24;;;;;;;;;;;2.20;99.90;;;;;;4973966;28;19938;-66
2023/12/09 05:17:50;;;;;;;;;;;2.20;99.90;;;;;;4973737;28;19969;-66
2023/12/09 05:20:15;;;;;;;;;;;2.20;99.90;;;;;;4972635;28;19957;-66
2023/12/09 05:22:42;;;;;;;;;;;2.20;99.90;;;;;;4973876;28;19966;-66
2023/12/09 05:25:08;;;;;;;;;;;2.20;99.90;;;;;;4974213;28;19958;-66
2023/12/09 05:27:33;;;;;;;;;;;2.20;99.90;;;;;;4974226;28;20001;-66
2023/12/09 05:29:59;;;;;;;;;;;2.20;99.90;;;;;;4972766;28;19967;-66
2023/12/09 05:32:24;;;;;;;;;;;2.20;99.90;;;;;;4972430;28;20397;-66
2023/12/09 05:34:50;;;;;;;;;;;2.30;99.90;;;;;;4973228;28;19932;-66
2023/12/09 05:37:15;;;;;;;;;;;2.20;99.90;;;;;;4966471;28;19929;-66
2023/12/09 05:39:41;;;;;;;;;;;2.30;99.90;;;;;;4973282;28;19950;-66
2023/12/09 05:42:06;;;;;;;;;;;2.30;99.90;;;;;;4972737;28;19945;-66
2023/12/09 05:44:32;;;;;;;;;;;2.30;99.90;;;;;;4973401;28;19933;-66
2023/12/09 05:46:57;;;;;;;;;;;2.20;99.90;;;;;;4971937;28;20390;-66
2023/12/09 05:49:23;;;;;;;;;;;2.20;99.90;;;;;;4973174;28;19948;-66
2023/12/09 05:51:48;;;;;;;;;;;2.20;99.90;;;;;;4972656;28;19933;-66
2023/12/09 05:54:14;;;;;;;;;;;2.20;99.90;;;;;;4970853;28;20287;-66
2023/12/09 05:56:40;;;;;;;;;;;2.20;99.90;;;;;;4973283;28;20033;-66
2023/12/09 05:59:05;;;;;;;;;;;2.30;99.90;;;;;;4972747;28;19934;-66
2023/12/09 06:01:33;;;;;;;;;;;2.20;99.90;;;;;;4972444;28;19943;-65
2023/12/09 06:03:58;;;;;;;;;;;2.20;99.90;;;;;;4972817;28;19928;-66
2023/12/09 06:06:24;;;;;;;;;;;2.30;99.90;;;;;;4973050;28;19984;-66
2023/12/09 06:08:49;;;;;;;;;;;2.30;99.90;;;;;;4972934;28;19954;-67
2023/12/09 06:11:15;;;;;;;;;;;2.30;99.90;;;;;;4972184;28;19950;-66
2023/12/09 06:13:41;;;;;;;;;;;2.30;99.90;;;;;;4972809;28;19939;-66
2023/12/09 06:16:07;;;;;;;;;;;2.20;99.90;;;;;;4972666;28;19926;-66
2023/12/09 06:18:33;;;;;;;;;;;2.30;99.90;;;;;;4972873;28;20392;-66
2023/12/09 06:20:58;;;;;;;;;;;2.30;99.90;;;;;;4971898;28;19962;-65
2023/12/09 06:23:24;;;;;;;;;;;2.30;99.90;;;;;;4972712;28;20322;-65
2023/12/09 06:25:50;;;;;;;;;;;2.30;99.90;;;;;;4972489;28;19986;-66
2023/12/09 06:28:15;;;;;;;;;;;2.30;99.90;;;;;;4972588;28;19939;-66
2023/12/09 06:30:41;;;;;;;;;;;2.20;99.90;;;;;;4971355;28;19951;-66
2023/12/09 06:33:06;;;;;;;;;;;2.20;99.90;;;;;;4971634;28;20083;-66
2023/12/09 06:35:32;;;;;;;;;;;2.30;99.90;;;;;;4972693;28;19976;-65
2023/12/09 06:37:57;;;;;;;;;;;2.30;99.90;;;;;;4970978;28;19958;-65
2023/12/09 06:40:23;;;;;;;;;;;2.30;99.90;;;;;;4971756;28;19979;-67
2023/12/09 06:42:49;;;;;;;;;;;2.30;99.90;;;;;;4972086;28;19947;-66
2023/12/09 06:45:14;;;;;;;;;;;2.30;99.90;;;;;;4972326;28;19979;-66
2023/12/09 06:47:39;;;;;;;;;;;2.30;99.90;;;;;;4972542;28;19935;-65
2023/12/09 06:50:06;;;;;;;;;;;2.30;99.90;;;;;;4971275;28;19946;-66
2023/12/09 06:52:31;;;;;;;;;;;2.30;99.90;;;;;;4972290;28;20013;-65
2023/12/09 06:54:57;;;;;;;;;;;2.30;99.90;;;;;;4972075;28;19964;-66
2023/12/09 06:57:22;;;;;;;;;;;2.30;99.90;;;;;;4970915;28;20422;-66
2023/12/09 06:59:48;;;;;;;;;;;2.30;99.90;;;;;;4971359;28;19973;-66
2023/12/09 07:02:13;;;;;;;;;;;2.30;99.90;;;;;;4972019;28;20094;-66
2023/12/09 07:04:39;;;;;;;;;;;2.30;99.90;;;;;;4972274;28;19939;-66
2023/12/09 07:07:06;;;;;;;;;;;2.20;99.90;;;;;;4971875;28;20406;-66
2023/12/09 07:09:31;;;;;;;;;;;2.20;99.90;;;;;;4972052;28;19952;-66
2023/12/09 07:11:57;;;;;;;;;;;2.20;99.90;;;;;;4971311;28;19930;-66
2023/12/09 07:14:22;;;;;;;;;;;2.30;99.90;;;;;;4972018;28;19983;-66
2023/12/09 07:16:47;;;;;;;;;;;2.30;99.90;;;;;;4972041;28;20126;-66
2023/12/09 07:19:13;;;;;;;;;;;2.30;99.90;;;;;;4971752;28;19936;-67
2023/12/09 07:21:39;;;;;;;;;;;2.30;99.90;;;;;;4971225;28;19948;-67
2023/12/09 07:24:05;;;;;;;;;;;2.30;99.90;;;;;;4971674;28;19935;-66
2023/12/09 07:26:30;;;;;;;;;;;2.30;99.90;;;;;;4971780;28;20441;-67
2023/12/09 07:28:56;;;;;;;;;;;2.30;99.90;;;;;;4971735;28;19937;-65
2023/12/09 07:31:21;;;;;;;;;;;2.30;99.90;;;;;;4971061;28;19956;-67
2023/12/09 07:33:47;;;;;;;;;;;2.30;99.90;;;;;;4971548;28;19933;-66
2023/12/09 07:36:12;;;;;;;;;;;2.40;99.90;;;;;;4971813;28;19927;-66
2023/12/09 07:38:38;;;;;;;;;;;2.40;99.90;;;;;;4962811;28;19929;-67
2023/12/09 07:41:04;;;;;;;;;;;2.40;99.90;;;;;;4969957;28;20036;-66
2023/12/09 07:43:31;;;;;;;;;;;2.40;99.90;;;;;;4973008;28;19941;-65
2023/12/09 07:45:56;;;;;;;;;;;2.40;99.90;;;;;;4975543;28;20376;-65
2023/12/09 07:48:21;;;;;;;;;;;2.30;99.90;;;;;;4975035;28;19934;-66
2023/12/09 07:50:47;;;;;;;;;;;2.30;99.90;;;;;;4974748;28;20415;-66
2023/12/09 07:53:12;;;;;;;;;;;2.30;99.90;;;;;;4975447;28;20026;-65
2023/12/09 07:55:38;;;;;;;;;;;2.40;99.90;;;;;;4974229;28;19930;-66
2023/12/09 07:58:03;;;;;;;;;;;2.30;99.90;;;;;;4975476;28;20382;-66
2023/12/09 08:00:29;;;;;;;;;;;2.40;99.90;;;;;;4974616;28;19979;-66
2023/12/09 08:02:55;;;;;;;;;;;2.40;99.90;;;;;;4975217;28;19952;-66
2023/12/09 08:05:21;;;;;;;;;;;2.40;99.90;;;;;;4975217;28;19971;-66
2023/12/09 08:07:47;;;;;;;;;;;2.40;99.90;;;;;;4975123;28;19935;-65
2023/12/09 08:10:12;;;;;;;;;;;2.40;99.90;;;;;;4974434;28;19942;-66
2023/12/09 08:12:37;;;;;;;;;;;2.40;99.90;;;;;;4975445;28;20046;-65
2023/12/09 08:15:03;;;;;;;;;;;2.40;99.90;;;;;;4974659;28;20302;-66
2023/12/09 08:17:29;;;;;;;;;;;2.40;99.90;;;;;;4974958;28;19927;-66
2023/12/09 08:19:54;;;;;;;;;;;2.40;99.90;;;;;;4974205;28;20065;-65
2023/12/09 08:22:20;;;;;;;;;;;2.50;99.90;;;;;;4974887;28;19958;-66
2023/12/09 08:24:45;;;;;;;;;;;2.60;99.90;;;;;;4974789;28;19970;-66
2023/12/09 08:27:10;;;;;;;;;;;2.60;99.90;;;;;;4974867;28;19929;-65
2023/12/09 08:29:36;;;;;;;;;;;2.60;99.90;;;;;;4974726;28;20003;-66
2023/12/09 08:32:02;;;;;;;;;;;2.70;99.90;;;;;;4972148;28;19931;-65
2023/12/09 08:34:27;;;;;;;;;;;2.80;99.90;;;;;;4973814;28;19937;-65
2023/12/09 08:36:53;;;;;;;;;;;2.90;99.90;;;;;;4973626;28;19937;-66
2023/12/09 08:39:18;;;;;;;;;;;2.90;99.90;;;;;;4973711;28;19932;-66
2023/12/09 08:41:44;;;;;;;;;;;3.00;99.90;;;;;;4973213;28;19961;-66
2023/12/09 08:44:10;;;;;;;;;;;3.00;99.90;;;;;;4973637;28;19932;-66
2023/12/09 08:46:35;;;;;;;;;;;3.10;99.90;;;;;;4972845;28;19956;-66
2023/12/09 08:49:01;;;;;;;;;;;3.20;99.90;;;;;;4973877;28;19935;-66
2023/12/09 08:51:26;;;;;;;;;;;3.20;99.90;;;;;;4973090;28;19939;-65
2023/12/09 08:53:51;;;;;;;;;;;3.30;99.90;;;;;;4973233;28;20009;-66
2023/12/09 08:56:17;;;;;;;;;;;3.40;99.90;;;;;;4973473;28;19953;-67
2023/12/09 08:58:42;;;;;;;;;;;3.40;99.90;;;;;;4988518;28;19966;-66
2023/12/09 09:01:08;;;;;;;;;;;3.40;99.90;;;;;;4973152;28;20175;-65
2023/12/09 09:03:34;;;;;;;;;;;3.40;99.90;;;;;;4973619;28;20029;-66
2023/12/09 09:06:00;;;;;;;;;;;3.50;99.90;;;;;;4973719;28;19939;-66
2023/12/09 09:08:25;;;;;;;;;;;3.50;99.90;;;;;;4973313;28;19939;-66
2023/12/09 09:10:51;;;;;;;;;;;3.60;99.90;;;;;;4972845;28;20105;-67
2023/12/09 09:13:16;;;;;;;;;;;3.60;99.90;;;;;;4973429;28;20277;-66
2023/12/09 09:15:42;;;;;;;;;;;3.60;99.90;;;;;;4973261;28;20029;-66
2023/12/09 09:18:07;;;;;;;;;;;3.60;99.90;;;;;;4969254;28;19933;-66
2023/12/09 09:20:33;;;;;;;;;;;3.60;99.90;;;;;;4970077;28;19954;-67
2023/12/09 09:22:58;;;;;;;;;;;3.60;99.90;;;;;;4972270;28;19949;-67
2023/12/09 09:25:23;;;;;;;;;;;3.70;99.90;;;;;;4970578;28;19930;-65
2023/12/09 09:27:49;;;;;;;;;;;3.70;99.90;;;;;;4970909;28;20094;-66
2023/12/09 09:30:14;;;;;;;;;;;3.70;99.90;;;;;;4970533;28;20574;-66
2023/12/09 09:32:40;;;;;;;;;;;3.80;99.90;;;;;;4971318;28;19994;-66
2023/12/09 09:35:06;;;;;;;;;;;3.80;99.90;;;;;;4970933;28;19933;-66
2023/12/09 09:37:32;;;;;;;;;;;3.80;99.90;;;;;;4971128;28;20372;-67
2023/12/09 09:39:57;;;;;;;;;;;3.80;99.90;;;;;;4970776;28;20053;-66
2023/12/09 09:42:25;;;;;;;;;;;3.90;99.90;;;;;;4972434;28;20040;-66
2023/12/09 09:45:14;;;;;;;;;;;3.90;99.90;;;;;;4972811;28;20034;-67
2023/12/09 09:47:41;;;;;;;;;;;3.90;99.90;;;;;;4972192;28;19985;-66
2023/12/09 09:50:06;;;;;;;;;;;3.90;99.90;;;;;;4971579;28;20056;-66
2023/12/09 09:52:34;;;;;;;;;;;4.00;99.90;;;;;;4972379;28;20007;-66
2023/12/09 09:55:00;;;;;;;;;;;4.00;99.90;;;;;;4972334;28;19939;-67
2023/12/09 09:57:26;;;;;;;;;;;4.00;99.90;;;;;;4972202;28;20146;-66
2023/12/09 09:59:55;;;;;;;;;;;4.10;99.90;;;;;;4971466;28;20050;-67
2023/12/09 10:02:21;;;;;;;;;;;4.10;99.90;;;;;;4972295;28;20009;-67
2023/12/09 10:04:46;;;;;;;;;;;4.20;99.90;;;;;;4971926;28;20344;-67
2023/12/09 10:07:12;;;;;;;;;;;4.20;99.90;;;;;;4972112;28;19960;-67
2023/12/09 10:09:38;;;;;;;;;;;4.20;99.90;;;;;;4972099;28;20329;-66
2023/12/09 10:12:03;;;;;;;;;;;4.30;99.90;;;;;;4971535;28;20387;-66
2023/12/09 10:14:29;;;;;;;;;;;4.30;99.90;;;;;;4971959;28;20005;-65
2023/12/09 10:16:54;;;;;;;;;;;4.40;99.90;;;;;;4971901;28;20021;-66
2023/12/09 10:19:20;;;;;;;;;;;4.40;99.90;;;;;;4971469;28;19970;-66
2023/12/09 10:21:46;;;;;;;;;;;4.40;99.90;;;;;;4971214;28;19954;-66
2023/12/09 10:24:11;;;;;;;;;;;4.40;99.90;;;;;;4971814;28;19962;-66
2023/12/09 10:26:38;;;;;;;;;;;4.40;99.90;;;;;;4964488;28;20029;-66
2023/12/09 10:29:03;;;;;;;;;;;4.50;99.90;;;;;;4963801;28;19929;-66
2023/12/09 10:31:30;;;;;;;;;;;4.50;99.90;;;;;;4965966;28;19930;-66
2023/12/09 10:33:56;;;;;;;;;;;4.50;99.90;;;;;;4961833;28;19937;-66
2023/12/09 10:36:22;;;;;;;;;;;4.60;99.90;;;;;;4962306;28;19932;-67
2023/12/09 10:38:51;;;;;;;;;;;4.60;99.90;;;;;;4962217;28;19932;-67
2023/12/09 10:41:16;;;;;;;;;;;4.70;99.90;;;;;;4962452;28;20020;-66
2023/12/09 10:43:42;;;;;;;;;;;4.70;99.90;;;;;;4965139;28;20030;-66
2023/12/09 10:46:08;;;;;;;;;;;4.70;99.90;;;;;;4966557;28;19927;-66
2023/12/09 10:48:34;;;;;;;;;;;4.70;99.90;;;;;;4969115;28;19930;-66
2023/12/09 10:50:59;;;;;;;;;;;4.70;99.90;;;;;;4970635;28;19957;-67
2023/12/09 10:53:25;;;;;;;;;;;4.70;99.90;;;;;;4971598;28;19936;-66
2023/12/09 10:55:51;;;;;;;;;;;4.70;99.90;;;;;;4971366;28;20164;-67
2023/12/09 10:58:17;;;;;;;;;;;4.80;99.90;;;;;;4970939;28;19931;-66
2023/12/09 11:00:43;;;;;;;;;;;4.80;99.90;;;;;;4970207;28;19990;-66
2023/12/09 11:03:09;;;;;;;;;;;4.70;99.90;;;;;;4970246;28;19944;-67
2023/12/09 11:05:44;;;;;;;;;;;4.80;99.90;;;;;;4971008;28;20021;-66
2023/12/09 11:08:13;;;;;;;;;;;4.80;99.90;;;;;;4970322;28;20483;-67
2023/12/09 11:10:39;;;;;;;;;;;4.70;99.90;;;;;;4969008;28;19954;-66
2023/12/09 11:13:05;;;;;;;;;;;4.70;99.90;;;;;;4970449;28;20316;-65
2023/12/09 11:15:32;;;;;;;;;;;4.80;99.90;;;;;;4970840;28;19935;-65
2023/12/09 11:18:08;;;;;;;;;;;4.80;99.90;;;;;;4970598;28;19935;-65
2023/12/09 11:20:35;;;;;;;;;;;4.90;99.90;;;;;;4970258;28;19972;-65
2023/12/09 11:23:01;;;;;;;;;;;5.00;99.90;;;;;;4970931;28;20441;-65
2023/12/09 11:25:28;;;;;;;;;;;5.00;99.90;;;;;;4971153;28;19969;-65
2023/12/09 11:27:54;;;;;;;;;;;5.10;99.90;;;;;;4971386;28;20383;-66
2023/12/09 11:30:33;;;;;;;;;;;5.10;99.90;;;;;;4970002;28;20540;-66
2023/12/09 11:32:58;;;;;;;;;;;5.10;99.90;;;;;;4970535;28;19934;-65
2023/12/09 11:35:25;;;;;;;;;;;5.10;99.90;;;;;;4970789;28;20322;-65
2023/12/09 11:37:51;;;;;;;;;;;5.20;99.90;;;;;;4970931;28;20022;-66
2023/12/09 11:40:16;;;;;;;;;;;5.10;99.90;;;;;;4970215;28;20041;-65
2023/12/09 11:42:42;;;;;;;;;;;5.10;99.90;;;;;;4970818;28;20383;-66
2023/12/09 11:45:08;;;;;;;;;;;5.10;99.90;;;;;;4970636;28;19973;-66
2023/12/09 11:47:36;;;;;;;;;;;5.20;99.90;;;;;;4970871;28;19987;-67
2023/12/09 11:50:01;;;;;;;;;;;5.20;99.90;;;;;;4969690;28;19941;-65
2023/12/09 11:52:27;;;;;;;;;;;5.10;99.90;;;;;;4970973;28;20002;-67
2023/12/09 11:54:59;;;;;;;;;;;5.20;99.90;;;;;;4970921;28;19938;-68
2023/12/09 11:57:27;;;;;;;;;;;5.20;99.90;;;;;;4970908;28;19938;-67
2023/12/09 11:59:52;;;;;;;;;;;5.30;99.90;;;;;;4970199;28;20002;-66
2023/12/09 12:02:19;;;;;;;;;;;5.30;99.90;;;;;;4970562;28;19951;-65
2023/12/09 12:04:44;;;;;;;;;;;5.40;99.90;;;;;;4970645;28;19937;-68
2023/12/09 12:07:10;;;;;;;;;;;5.40;99.90;;;;;;4970603;28;20467;-66
2023/12/09 12:09:36;;;;;;;;;;;5.40;99.90;;;;;;4970423;28;19948;-66
2023/12/09 12:12:01;;;;;;;;;;;5.50;99.90;;;;;;4984921;28;19934;-66
2023/12/09 12:14:27;;;;;;;;;;;5.50;99.90;;;;;;4970602;28;19935;-66
2023/12/09 12:16:53;;;;;;;;;;;5.50;99.90;;;;;;4970465;28;19938;-68
2023/12/09 12:19:19;;;;;;;;;;;5.60;99.90;;;;;;4970485;28;20095;-67
2023/12/09 12:21:51;;;;;;;;;;;5.60;99.90;;;;;;4970018;28;20056;-68
2023/12/09 12:24:17;;;;;;;;;;;5.60;99.90;;;;;;4970635;28;19951;-67
2023/12/09 12:26:43;;;;;;;;;;;5.60;99.90;;;;;;4970647;28;19929;-67
2023/12/09 12:29:09;;;;;;;;;;;5.70;99.90;;;;;;4970507;28;19988;-67
2023/12/09 12:31:35;;;;;;;;;;;5.70;99.90;;;;;;4973433;28;20343;-67
2023/12/09 12:34:33;;;;;;;;;;;5.70;99.90;;;;;;4973575;28;19936;-67
2023/12/09 12:36:58;;;;;;;;;;;5.80;99.90;;;;;;4972107;28;19929;-67
2023/12/09 12:39:24;;;;;;;;;;;5.90;99.90;;;;;;4973912;28;20005;-67
2023/12/09 12:41:50;;;;;;;;;;;5.80;99.90;;;;;;4973112;28;20351;-67
2023/12/09 12:44:15;;;;;;;;;;;5.90;99.90;;;;;;4973970;28;19925;-67
2023/12/09 12:46:41;;;;;;;;;;;5.90;99.90;;;;;;4973768;28;20618;-67
2023/12/09 12:49:06;;;;;;;;;;;5.90;99.90;;;;;;4973060;28;19934;-66
2023/12/09 12:51:32;;;;;;;;;;;5.90;99.90;;;;;;4973069;28;19933;-66
2023/12/09 12:53:57;;;;;;;;;;;5.90;99.90;;;;;;4973414;28;20382;-66
2023/12/09 12:56:24;;;;;;;;;;;5.90;99.90;;;;;;4973453;28;19966;-67
2023/12/09 12:58:49;;;;;;;;;;;5.90;99.90;;;;;;4967062;28;19989;-67
2023/12/09 13:01:15;;;;;;;;;;;5.90;99.90;;;;;;4966639;28;19996;-66
2023/12/09 13:03:40;;;;;;;;;;;5.90;99.90;;;;;;4967303;28;19930;-66
2023/12/09 13:06:06;;;;;;;;;;;5.90;99.90;;;;;;4969888;28;19945;-67
2023/12/09 13:08:31;;;;;;;;;;;5.90;99.90;;;;;;4973382;28;20417;-67
2023/12/09 13:10:57;;;;;;;;;;;5.90;99.90;;;;;;4972547;28;19951;-65
2023/12/09 13:13:23;;;;;;;;;;;5.90;99.90;;;;;;4973077;28;19934;-65
2023/12/09 13:15:49;;;;;;;;;;;5.90;99.90;;;;;;4973195;28;19966;-66
2023/12/09 13:18:14;;;;;;;;;;;5.90;99.90;;;;;;4973153;28;19988;-65
2023/12/09 13:20:41;;;;;;;;;;;6.00;99.90;;;;;;4972214;28;19968;-65
2023/12/09 13:23:07;;;;;;;;;;;6.00;99.90;;;;;;4972744;28;19993;-65
2023/12/09 13:25:32;;;;;;;;;;;6.00;99.90;;;;;;4972886;28;20020;-65
2023/12/09 13:27:58;;;;;;;;;;;5.90;99.90;;;;;;4972639;28;19931;-65
2023/12/09 13:30:24;;;;;;;;;;;5.90;99.90;;;;;;4972702;28;19943;-65
2023/12/09 13:32:49;;;;;;;;;;;5.90;99.90;;;;;;4973698;28;19930;-66
2023/12/09 13:35:15;;;;;;;;;;;5.80;99.90;;;;;;4973458;28;19931;-66
2023/12/09 13:37:40;;;;;;;;;;;5.80;99.90;;;;;;4973760;28;19977;-66
2023/12/09 13:40:09;;;;;;;;;;;5.80;99.90;;;;;;4972211;28;19951;-65
2023/12/09 13:42:35;;;;;;;;;;;5.70;99.90;;;;;;4973447;28;20299;-65
2023/12/09 13:45:00;;;;;;;;;;;5.70;99.90;;;;;;4973394;28;19952;-65
2023/12/09 13:47:26;;;;;;;;;;;5.70;99.90;;;;;;4973377;28;20046;-65
2023/12/09 13:49:51;;;;;;;;;;;5.70;99.90;;;;;;4972428;28;19948;-65
2023/12/09 13:52:17;;;;;;;;;;;5.70;99.90;;;;;;4973388;28;20333;-66
2023/12/09 13:54:43;;;;;;;;;;;5.70;99.90;;;;;;4973356;28;19926;-66
2023/12/09 13:57:09;;;;;;;;;;;5.70;99.90;;;;;;4973237;28;19938;-65
2023/12/09 13:59:34;;;;;;;;;;;5.60;99.90;;;;;;4973038;28;19952;-65
2023/12/09 14:02:00;;;;;;;;;;;5.60;99.90;;;;;;4972418;28;19989;-65
2023/12/09 14:04:26;;;;;;;;;;;5.50;99.90;;;;;;4972877;28;19937;-66
2023/12/09 14:06:51;;;;;;;;;;;5.60;99.90;;;;;;4973079;28;19978;-66
2023/12/09 14:09:17;;;;;;;;;;;5.60;99.90;;;;;;4972994;28;19930;-65
2023/12/09 14:11:43;;;;;;;;;;;5.50;99.90;;;;;;4972422;28;19930;-65
2023/12/09 14:14:08;;;;;;;;;;;5.50;99.90;;;;;;4972855;28;20036;-66
2023/12/09 14:16:35;;;;;;;;;;;5.50;99.90;;;;;;4969998;28;19945;-66
2023/12/09 14:19:01;;;;;;;;;;;5.50;99.90;;;;;;4963937;28;20401;-66
2023/12/09 14:21:27;;;;;;;;;;;5.50;99.90;;;;;;4965962;28;20313;-65
2023/12/09 14:23:53;;;;;;;;;;;5.50;99.90;;;;;;4963490;28;19939;-65